Time;durP1;ratioP1;P1;durP2;ratioP2;P2;SDS_P1;SDS_P2;PMS_P1;PMS_P2;Temp;Humidity;BMP_temperature;BMP_pressure;BME280_temperature;BME280_humidity;BME280_pressure;Samples;Min_cycle;Max_cycle;Signal;HPM_P1;HPM_P2
2023/11/27 00:00:58;;;;;;;21.00;12.90;;;;;;;-146.27;89.76;33573.13;5108278;28;20027;-69
2023/11/27 00:03:24;;;;;;;24.95;13.70;;;;;;;-146.27;90.26;33559.25;5104947;28;20097;-70
2023/11/27 00:05:49;;;;;;;25.38;13.98;;;;;;;-146.27;90.13;33569.16;5094723;28;20103;-69
2023/11/27 00:08:15;;;;;;;24.67;13.38;;;;;;;-146.27;89.10;33509.63;5110671;28;20067;-69
2023/11/27 00:10:40;;;;;;;23.50;13.52;;;;;;;-146.27;89.00;33533.44;5094557;28;20055;-69
2023/11/27 00:13:05;;;;;;;22.25;14.05;;;;;;;-146.27;89.50;33553.28;5104310;28;20046;-69
2023/11/27 00:15:31;;;;;;;21.52;13.20;;;;;;;-146.27;89.93;33604.88;5097218;28;20139;-68
2023/11/27 00:17:56;;;;;;;23.45;12.70;;;;;;;-146.27;89.82;33577.09;5106060;28;20035;-70
2023/11/27 00:20:22;;;;;;;26.38;13.63;;;;;;;-146.27;90.26;33628.69;5100001;28;20629;-69
2023/11/27 00:22:47;;;;;;;23.20;14.60;;;;;;;-146.27;90.45;33642.56;5111334;28;20080;-69
2023/11/27 00:25:13;;;;;;;22.17;13.45;;;;;;;-146.27;90.64;33688.22;5099183;28;20020;-69
2023/11/27 00:27:38;;;;;;;25.50;14.35;;;;;;;-146.27;89.92;33620.75;5108683;28;20077;-69
2023/11/27 00:30:06;;;;;;;24.80;13.48;;;;;;;-146.27;88.88;33567.19;5085054;28;20035;-69
2023/11/27 00:32:33;;;;;;;24.88;13.02;;;;;;;-146.27;89.10;33587.03;5111456;28;20032;-68
2023/11/27 00:34:58;;;;;;;23.85;12.90;;;;;;;-146.27;89.18;33620.75;5110558;28;20019;-70
2023/11/27 00:37:24;;;;;;;22.50;13.43;;;;;;;-146.27;88.72;33616.78;5107500;28;20020;-70
2023/11/27 00:39:50;;;;;;;20.75;11.95;;;;;;;-146.27;88.94;33634.66;5102239;28;20032;-69
2023/11/27 00:42:17;;;;;;;25.10;12.13;;;;;;;-146.27;89.47;33648.53;5107591;28;20444;-69
2023/11/27 00:44:43;;;;;;;28.23;12.60;;;;;;;-146.27;89.26;33628.69;5098100;28;20024;-70
2023/11/27 00:47:08;;;;;;;28.73;12.07;;;;;;;-146.27;89.29;33636.63;5110352;28;20070;-70
2023/11/27 00:49:34;;;;;;;23.35;12.23;;;;;;;-146.27;88.65;33596.94;5107566;28;20020;-69
2023/11/27 00:51:59;;;;;;;32.08;12.73;;;;;;;-146.27;89.11;33644.56;5108887;28;20084;-69
2023/11/27 00:54:24;;;;;;;20.63;11.13;;;;;;;-146.27;90.04;33692.19;5107326;28;20663;-69
2023/11/27 00:56:50;;;;;;;16.67;11.32;;;;;;;-146.27;88.52;33622.75;5103017;28;20052;-69
2023/11/27 00:59:15;;;;;;;30.88;13.10;;;;;;;-146.27;88.48;33602.91;5096800;28;20558;-68
2023/11/27 01:01:40;;;;;;;18.38;10.80;;;;;;;-146.27;88.79;33648.53;5097144;28;20629;-68
2023/11/27 01:04:06;;;;;;;19.60;11.02;;;;;;;-146.27;88.91;33628.69;5105324;28;20387;-69
2023/11/27 01:06:33;;;;;;;20.08;11.05;;;;;;;-146.27;88.64;33640.59;5110286;28;20095;-69
2023/11/27 01:08:58;;;;;;;21.58;10.48;;;;;;;-146.27;89.58;33696.16;5107822;28;20036;-69
2023/11/27 01:11:23;;;;;;;21.95;11.23;;;;;;;-146.27;90.02;33678.28;5099851;28;20034;-70
2023/11/27 01:13:49;;;;;;;18.02;10.57;;;;;;;-146.27;89.72;33700.13;5105375;28;20037;-68
2023/11/27 01:16:14;;;;;;;24.23;11.70;;;;;;;-146.27;88.50;33585.03;5098524;28;20016;-67
2023/11/27 01:18:40;;;;;;;21.50;10.45;;;;;;;-146.27;87.97;33571.16;5105450;28;20184;-71
2023/11/27 01:21:05;;;;;;;19.48;10.50;;;;;;;-146.27;89.34;33696.16;5098158;28;20027;-69
2023/11/27 01:23:31;;;;;;;18.08;10.63;;;;;;;-146.27;88.70;33592.97;5105428;28;20606;-70
2023/11/27 01:25:57;;;;;;;17.08;10.65;;;;;;;-146.27;89.08;33704.09;5103805;28;20098;-69
2023/11/27 01:28:22;;;;;;;17.83;9.95;;;;;;;-146.27;88.83;33652.50;5108397;28;20032;-70
2023/11/27 01:30:47;;;;;;;19.30;10.27;;;;;;;-146.27;89.13;33668.38;5109592;28;20035;-69
2023/11/27 01:33:15;;;;;;;21.08;10.35;;;;;;;-146.27;89.57;33704.09;5096470;28;20468;-70
2023/11/27 01:35:40;;;;;;;17.85;10.63;;;;;;;-146.27;89.14;33688.22;5106266;28;20110;-70
2023/11/27 01:38:06;;;;;;;19.65;10.27;;;;;;;-146.27;88.92;33640.59;5091921;28;20115;-69
2023/11/27 01:40:31;;;;;;;21.02;10.88;;;;;;;-146.27;88.89;33616.78;5090989;28;20039;-70
2023/11/27 01:42:59;;;;;;;21.05;10.57;;;;;;;-146.27;89.46;33640.59;5098953;28;20039;-70
2023/11/27 01:45:25;;;;;;;19.98;10.38;;;;;;;-146.27;89.77;33668.38;5095192;28;20016;-69
2023/11/27 01:47:51;;;;;;;16.02;8.85;;;;;;;-146.27;89.32;33674.31;5090229;28;20070;-69
2023/11/27 01:50:17;;;;;;;17.33;11.07;;;;;;;-146.27;89.86;33674.31;5090805;28;20429;-69
2023/11/27 01:52:42;;;;;;;16.75;10.23;;;;;;;-146.27;89.05;33606.88;5091353;28;20028;-71
2023/11/27 01:55:11;;;;;;;21.58;10.40;;;;;;;-146.27;88.91;33616.78;5090819;28;20020;-69
2023/11/27 01:57:37;;;;;;;14.23;8.82;;;;;;;-146.27;91.10;33745.75;5096883;28;20380;-70
2023/11/27 02:00:05;;;;;;;19.45;10.07;;;;;;;-146.27;90.45;33660.44;5096584;28;20027;-68
2023/11/27 02:02:31;;;;;;;14.05;9.25;;;;;;;-146.27;89.83;33628.69;5093225;28;20115;-69
2023/11/27 02:04:56;;;;;;;16.63;9.50;;;;;;;-146.27;89.96;33612.81;5090841;28;20107;-69
2023/11/27 02:07:22;;;;;;;16.10;9.60;;;;;;;-146.27;89.91;33620.75;5091176;28;20392;-69
2023/11/27 02:09:48;;;;;;;16.25;9.25;;;;;;;-146.27;88.88;33565.19;5095756;28;20024;-69
2023/11/27 02:12:15;;;;;;;15.68;9.40;;;;;;;-146.27;89.86;33668.38;5110700;28;20532;-70
2023/11/27 02:14:40;;;;;;;13.00;7.85;;;;;;;-146.27;90.50;33640.59;5110917;28;20564;-69
2023/11/27 02:17:06;;;;;;;15.00;9.02;;;;;;;-146.27;91.26;33712.03;5109933;28;20028;-69
2023/11/27 02:19:31;;;;;;;17.63;9.57;;;;;;;-146.27;91.52;33741.78;5079905;28;20080;-69
2023/11/27 02:21:57;;;;;;;15.68;8.60;;;;;;;-146.27;91.20;33708.06;5081909;28;20089;-68
2023/11/27 02:24:22;;;;;;;19.27;8.57;;;;;;;-146.27;90.61;33654.47;5090358;28;20031;-69
2023/11/27 02:26:48;;;;;;;18.17;8.88;;;;;;;-146.27;90.84;33723.94;5087782;28;20456;-69
2023/11/27 02:29:13;;;;;;;12.52;8.23;;;;;;;-146.27;91.53;33727.91;5086341;28;20036;-69
2023/11/27 02:31:39;;;;;;;16.23;8.38;;;;;;;-146.27;91.97;33735.84;5090782;28;20020;-69
2023/11/27 02:34:04;;;;;;;17.98;9.13;;;;;;;-146.27;91.97;33717.97;5077880;28;20036;-69
2023/11/27 02:36:36;;;;;;;13.70;7.97;;;;;;;-146.27;91.57;33723.94;5083542;28;20371;-69
2023/11/27 02:39:02;;;;;;;13.57;8.48;;;;;;;-146.27;91.10;33672.34;5080172;28;20042;-68
2023/11/27 02:41:27;;;;;;;13.32;7.90;;;;;;;-146.27;90.51;33602.91;5080051;28;20025;-68
2023/11/27 02:43:52;;;;;;;12.57;8.43;;;;;;;-146.27;90.73;33664.41;5069750;28;20070;-68
2023/11/27 02:46:18;;;;;;;13.68;8.05;;;;;;;-146.27;91.19;33712.03;5077987;28;20441;-68
2023/11/27 02:48:43;;;;;;;8.95;7.15;;;;;;;-146.27;91.77;33747.75;5080972;28;20662;-68
2023/11/27 02:51:09;;;;;;;12.90;7.72;;;;;;;-146.27;91.92;33723.94;5070550;28;20024;-69
2023/11/27 02:53:35;;;;;;;10.88;7.28;;;;;;;-146.27;91.32;33672.34;5069451;28;20029;-68
2023/11/27 02:56:00;;;;;;;10.13;7.35;;;;;;;-146.27;92.01;33779.50;5073868;28;20077;-67
2023/11/27 02:58:25;;;;;;;12.07;7.72;;;;;;;-146.27;92.23;33688.22;5069233;28;20471;-69
2023/11/27 03:00:51;;;;;;;15.13;7.32;;;;;;;-146.27;92.25;33704.09;5070438;28;20399;-69
2023/11/27 03:03:16;;;;;;;14.25;8.27;;;;;;;-146.27;92.60;33795.38;5078239;28;20475;-68
2023/11/27 03:05:42;;;;;;;16.15;8.27;;;;;;;-146.27;91.79;33751.72;5071436;28;20020;-68
2023/11/27 03:08:07;;;;;;;12.40;7.25;;;;;;;-146.27;92.39;33745.75;5084745;28;20477;-69
2023/11/27 03:10:33;;;;;;;12.57;7.32;;;;;;;-146.27;91.66;33700.13;5080565;28;20032;-69
2023/11/27 03:12:58;;;;;;;12.27;7.68;;;;;;;-146.27;91.76;33735.84;5069551;28;20025;-69
2023/11/27 03:15:24;;;;;;;13.57;7.65;;;;;;;-146.27;91.90;33767.59;5070041;28;20028;-69
2023/11/27 03:17:49;;;;;;;9.40;6.85;;;;;;;-146.27;92.73;33801.31;5093146;28;20077;-69
2023/11/27 03:20:14;;;;;;;11.95;8.02;;;;;;;-146.27;92.12;33731.88;5114008;28;20036;-69
2023/11/27 03:22:40;;;;;;;11.93;7.95;;;;;;;-146.27;91.32;33684.25;5113978;28;20023;-68
2023/11/27 03:25:06;;;;;;;10.20;7.13;;;;;;;-146.27;91.26;33664.41;5104065;28;20035;-69
2023/11/27 03:27:32;;;;;;;9.48;7.05;;;;;;;-146.27;91.45;33706.06;5106478;28;20039;-69
2023/11/27 03:29:57;;;;;;;12.40;7.97;;;;;;;-146.27;91.88;33731.88;5093669;28;20102;-68
2023/11/27 03:32:22;;;;;;;15.50;8.43;;;;;;;-146.27;91.30;33692.19;5093416;28;20024;-68
2023/11/27 03:34:48;;;;;;;14.27;8.18;;;;;;;-146.27;92.34;33763.63;5097828;28;20026;-71
2023/11/27 03:37:13;;;;;;;11.13;7.13;;;;;;;-146.27;91.74;33767.59;5101884;28;20032;-68
2023/11/27 03:39:38;;;;;;;12.10;8.45;;;;;;;-146.27;93.65;33854.91;5093279;28;20118;-69
2023/11/27 03:42:04;;;;;;;10.80;7.57;;;;;;;-146.27;91.85;33712.03;5094077;28;20383;-69
2023/11/27 03:44:29;;;;;;;12.43;8.70;;;;;;;-146.27;91.53;33751.72;5110670;28;20412;-67
2023/11/27 03:46:55;;;;;;;10.48;7.35;;;;;;;-146.27;91.66;33698.13;5092985;28;20047;-68
2023/11/27 03:49:20;;;;;;;10.63;7.63;;;;;;;-146.27;91.03;33712.03;5099203;28;20068;-68
2023/11/27 03:51:46;;;;;;;10.73;7.75;;;;;;;-146.27;92.20;33743.78;5105912;28;20028;-69
2023/11/27 03:54:11;;;;;;;12.15;7.72;;;;;;;-146.27;92.12;33771.56;5110255;28;20035;-68
2023/11/27 03:56:37;;;;;;;12.48;8.23;;;;;;;-146.27;91.65;33704.09;5110782;28;20047;-68
2023/11/27 03:59:02;;;;;;;11.18;8.55;;;;;;;-146.27;91.20;33690.19;5105950;28;20055;-69
2023/11/27 04:01:28;;;;;;;11.30;7.93;;;;;;;-146.27;91.57;33745.75;5103858;28;20057;-68
2023/11/27 04:03:53;;;;;;;14.65;8.82;;;;;;;-146.27;90.88;33676.31;5093825;28;20031;-68
2023/11/27 04:06:24;;;;;;;12.02;8.60;;;;;;;-146.27;92.17;33737.81;5093453;28;20028;-67
2023/11/27 04:08:49;;;;;;;11.55;8.23;;;;;;;-146.27;91.45;33676.31;5095891;28;20063;-67
2023/11/27 04:11:16;;;;;;;11.35;8.27;;;;;;;-146.27;91.07;33656.47;5092477;28;20052;-70
2023/11/27 04:13:41;;;;;;;13.02;9.60;;;;;;;-146.27;91.26;33656.47;5111361;28;20027;-69
2023/11/27 04:16:09;;;;;;;14.73;10.15;;;;;;;-146.27;92.08;33751.72;5094909;28;20032;-68
2023/11/27 04:18:35;;;;;;;14.68;9.75;;;;;;;-146.27;91.63;33743.78;5093181;28;20086;-68
2023/11/27 04:21:00;;;;;;;18.90;10.45;;;;;;;-146.27;90.62;33628.69;5095046;28;20032;-68
2023/11/27 04:23:26;;;;;;;16.25;9.85;;;;;;;-146.27;90.60;33668.38;5108632;28;20096;-68
2023/11/27 04:25:51;;;;;;;11.80;8.68;;;;;;;-146.27;90.76;33684.25;5107902;28;20037;-68
2023/11/27 04:28:17;;;;;;;11.50;7.78;;;;;;;-146.27;90.93;33710.03;5091616;28;20078;-68
2023/11/27 04:30:42;;;;;;;10.43;8.02;;;;;;;-146.27;90.97;33704.09;5108268;28;20038;-69
2023/11/27 04:33:07;;;;;;;9.00;6.80;;;;;;;-146.27;91.12;33731.88;5097118;28;20028;-68
2023/11/27 04:35:33;;;;;;;13.93;7.22;;;;;;;-146.27;90.09;33638.59;5104150;28;20475;-69
2023/11/27 04:37:58;;;;;;;11.85;8.55;;;;;;;-146.27;90.75;33688.22;5111711;28;20028;-68
2023/11/27 04:40:24;;;;;;;10.85;8.27;;;;;;;-146.27;90.26;33636.63;5109250;28;20104;-69
2023/11/27 04:42:50;;;;;;;16.35;9.20;;;;;;;-146.27;90.03;33660.44;5098468;28;20059;-69
2023/11/27 04:45:15;;;;;;;11.68;9.25;;;;;;;-146.27;90.60;33706.06;5099916;28;20032;-68
2023/11/27 04:47:40;;;;;;;13.48;9.27;;;;;;;-146.27;90.21;33717.97;5097899;28;20036;-68
2023/11/27 04:50:07;;;;;;;14.13;10.48;;;;;;;-146.27;90.29;33694.16;5101567;28;20019;-69
2023/11/27 04:52:32;;;;;;;18.92;10.18;;;;;;;-146.27;90.02;33678.28;5107290;28;20057;-69
2023/11/27 04:54:58;;;;;;;15.18;10.25;;;;;;;-146.27;89.62;33676.31;5103687;28;20052;-68
2023/11/27 04:57:24;;;;;;;14.02;9.90;;;;;;;-146.27;89.91;33710.03;5098040;28;20076;-68
2023/11/27 04:59:50;;;;;;;15.95;9.45;;;;;;;-146.27;90.07;33676.31;5101924;28;20552;-70
2023/11/27 05:02:15;;;;;;;12.00;8.65;;;;;;;-146.27;89.94;33686.22;5096280;28;20139;-69
2023/11/27 05:04:41;;;;;;;14.73;9.07;;;;;;;-146.27;89.88;33654.47;5099846;28;20028;-68
2023/11/27 05:07:06;;;;;;;12.20;8.90;;;;;;;-146.27;90.13;33696.16;5086796;28;20130;-68
2023/11/27 05:09:32;;;;;;;12.10;8.68;;;;;;;-146.27;89.82;33686.22;5098384;28;20702;-68
2023/11/27 05:11:58;;;;;;;15.40;9.40;;;;;;;-146.27;89.61;33676.31;5094922;28;20035;-68
2023/11/27 05:14:23;;;;;;;15.73;9.90;;;;;;;-146.27;89.51;33680.28;5091238;28;20079;-69
2023/11/27 05:16:49;;;;;;;12.60;8.57;;;;;;;-146.27;89.45;33694.16;5092049;28;20024;-69
2023/11/27 05:19:14;;;;;;;14.68;9.73;;;;;;;-146.27;89.29;33696.16;5096425;28;20089;-68
2023/11/27 05:21:39;;;;;;;14.32;9.55;;;;;;;-146.27;89.67;33727.91;5105650;28;20499;-69
2023/11/27 05:24:05;;;;;;;15.45;9.65;;;;;;;-146.27;90.03;33737.81;5110661;28;20418;-67
2023/11/27 05:26:30;;;;;;;11.60;8.35;;;;;;;-146.27;90.05;33745.75;5109566;28;20015;-70
2023/11/27 05:28:56;;;;;;;15.25;9.27;;;;;;;-146.27;89.86;33759.66;5093798;28;20028;-68
2023/11/27 05:31:24;;;;;;;15.18;9.05;;;;;;;-146.27;89.77;33680.28;5111607;28;20036;-69
2023/11/27 05:33:50;;;;;;;10.38;7.60;;;;;;;-146.27;89.37;33708.06;5104459;28;20031;-69
2023/11/27 05:36:16;;;;;;;11.32;8.15;;;;;;;-146.27;89.64;33710.03;5110113;28;20032;-69
2023/11/27 05:38:42;;;;;;;14.10;8.23;;;;;;;-146.27;89.62;33735.84;5097257;28;20023;-68
2023/11/27 05:41:11;;;;;;;10.90;8.02;;;;;;;-146.27;89.70;33716.00;5094133;28;20482;-68
2023/11/27 05:43:36;;;;;;;13.75;7.78;;;;;;;-146.27;89.96;33771.56;5111010;28;20033;-68
2023/11/27 05:46:02;;;;;;;14.10;8.05;;;;;;;-146.27;90.43;33779.50;5098157;28;20012;-69
2023/11/27 05:48:28;;;;;;;9.85;8.02;;;;;;;-146.27;90.58;33743.78;5108084;28;20540;-69
2023/11/27 05:50:53;;;;;;;11.00;8.30;;;;;;;-146.27;90.24;33727.91;5103623;28;20036;-69
2023/11/27 05:53:19;;;;;;;12.70;8.43;;;;;;;-146.27;90.04;33747.75;5092970;28;20065;-68
2023/11/27 05:55:45;;;;;;;12.85;8.90;;;;;;;-146.27;90.30;33743.78;5104511;28;20027;-69
2023/11/27 05:58:10;;;;;;;14.40;9.00;;;;;;;-146.27;90.36;33791.41;5097802;28;20024;-68
2023/11/27 06:00:36;;;;;;;17.15;8.93;;;;;;;-146.27;90.46;33789.41;5095409;28;20041;-68
2023/11/27 06:03:01;;;;;;;12.73;9.27;;;;;;;-146.27;90.43;33721.94;5092059;28;20028;-71
2023/11/27 06:05:27;;;;;;;14.23;8.98;;;;;;;-146.27;90.32;33733.84;5103037;28;20015;-68
2023/11/27 06:07:52;;;;;;;13.32;8.93;;;;;;;-146.27;89.99;33702.09;5105878;28;20413;-67
2023/11/27 06:10:18;;;;;;;15.93;9.98;;;;;;;-146.27;90.04;33727.91;5098129;28;20439;-68
2023/11/27 06:12:43;;;;;;;13.65;9.70;;;;;;;-146.27;89.89;33712.03;5094994;28;20035;-67
2023/11/27 06:15:13;;;;;;;13.00;9.40;;;;;;;-146.27;89.84;33723.94;5096500;28;20039;-68
2023/11/27 06:17:39;;;;;;;13.07;8.88;;;;;;;-146.27;89.84;33660.44;5098577;28;20059;-68
2023/11/27 06:20:05;;;;;;;16.63;9.75;;;;;;;-146.27;89.45;33688.22;5097358;28;20173;-70
2023/11/27 06:22:32;;;;;;;13.82;8.90;;;;;;;-146.27;89.49;33684.25;5073692;28;20036;-69
2023/11/27 06:24:58;;;;;;;13.43;9.55;;;;;;;-146.27;89.80;33712.03;5093010;28;20114;-69
2023/11/27 06:27:24;;;;;;;13.73;9.75;;;;;;;-146.27;89.95;33678.28;5096688;28;20436;-69
2023/11/27 06:29:49;;;;;;;12.82;9.57;;;;;;;-146.27;89.48;33692.19;5097520;28;20522;-69
2023/11/27 06:32:15;;;;;;;15.90;10.05;;;;;;;-146.27;90.15;33757.66;5091724;28;20028;-69
2023/11/27 06:34:40;;;;;;;15.57;10.82;;;;;;;-146.27;89.96;33725.91;5106094;28;20396;-70
2023/11/27 06:37:07;;;;;;;13.23;9.18;;;;;;;-146.27;89.86;33680.28;5091496;28;20202;-68
2023/11/27 06:39:32;;;;;;;12.43;8.90;;;;;;;-146.27;89.69;33684.25;5095014;28;20693;-70
2023/11/27 06:41:58;;;;;;;12.70;9.70;;;;;;;-146.27;89.51;33704.09;5089010;28;20055;-69
2023/11/27 06:44:23;;;;;;;12.73;9.68;;;;;;;-146.27;89.59;33680.28;5091559;28;20028;-70
2023/11/27 06:46:49;;;;;;;11.73;9.13;;;;;;;-146.27;89.51;33664.41;5101632;28;20012;-67
2023/11/27 06:49:14;;;;;;;13.10;9.38;;;;;;;-146.27;89.37;33668.38;5090538;28;20027;-69
2023/11/27 06:51:40;;;;;;;13.73;9.93;;;;;;;-146.27;89.42;33624.72;5097594;28;20034;-68
2023/11/27 06:54:05;;;;;;;14.95;10.07;;;;;;;-146.27;89.46;33686.22;5101165;28;20104;-68
2023/11/27 06:56:33;;;;;;;14.27;9.30;;;;;;;-146.27;89.64;33716.00;5101158;28;20019;-69
2023/11/27 06:59:03;;;;;;;12.45;9.55;;;;;;;-146.27;89.42;33646.53;5095308;28;20063;-69
2023/11/27 07:01:29;;;;;;;12.55;8.85;;;;;;;-146.27;89.69;33670.34;5095270;28;20034;-69
2023/11/27 07:03:55;;;;;;;14.68;9.80;;;;;;;-146.27;89.66;33652.50;5093196;28;20023;-68
2023/11/27 07:06:21;;;;;;;13.82;9.40;;;;;;;-146.27;89.62;33666.38;5089969;28;20020;-69
2023/11/27 07:08:47;;;;;;;14.32;10.05;;;;;;;-146.27;89.70;33616.78;5090030;28;20100;-68
2023/11/27 07:11:12;;;;;;;13.10;9.18;;;;;;;-146.27;89.45;33680.28;5090333;28;20020;-68
2023/11/27 07:13:38;;;;;;;14.70;10.02;;;;;;;-146.27;89.42;33642.56;5089818;28;20032;-70
2023/11/27 07:16:03;;;;;;;15.60;10.35;;;;;;;-146.27;89.69;33662.41;5085666;28;20030;-70
2023/11/27 07:18:31;;;;;;;14.38;9.13;;;;;;;-146.27;89.59;33632.66;5092919;28;20047;-71
2023/11/27 07:21:00;;;;;;;13.38;9.73;;;;;;;-146.27;89.99;33658.44;5108433;28;20482;-69
2023/11/27 07:23:26;;;;;;;14.10;10.40;;;;;;;-146.27;90.06;33704.09;5105820;28;20023;-70
2023/11/27 07:25:53;;;;;;;16.15;10.75;;;;;;;-146.27;89.79;33678.28;5102727;28;20039;-70
2023/11/27 07:28:18;;;;;;;15.30;10.73;;;;;;;-146.27;90.65;33690.19;5093529;28;20031;-69
2023/11/27 07:30:43;;;;;;;16.58;10.88;;;;;;;-146.27;90.00;33650.50;5089261;28;20048;-70
2023/11/27 07:33:09;;;;;;;17.73;11.75;;;;;;;-146.27;90.05;33716.00;5089669;28;20097;-69
2023/11/27 07:35:35;;;;;;;21.08;10.88;;;;;;;-146.27;90.11;33589.00;5089214;28;20016;-69
2023/11/27 07:38:01;;;;;;;16.48;11.48;;;;;;;-146.27;90.05;33666.38;5089454;28;20538;-69
2023/11/27 07:40:28;;;;;;;15.95;11.27;;;;;;;-146.27;89.91;33680.28;5089749;28;20024;-70
2023/11/27 07:42:54;;;;;;;23.17;13.13;;;;;;;-146.27;89.86;33616.78;5088935;28;20111;-68
2023/11/27 07:45:20;;;;;;;21.65;12.52;;;;;;;-146.27;89.85;33672.34;5100100;28;20020;-69
2023/11/27 07:47:45;;;;;;;20.35;13.52;;;;;;;-146.27;89.89;33662.41;5090506;28;20039;-68
2023/11/27 07:50:11;;;;;;;18.40;12.40;;;;;;;-146.27;89.78;33622.75;5089689;28;20117;-69
2023/11/27 07:52:36;;;;;;;19.33;12.55;;;;;;;-146.27;89.66;33604.88;5089649;28;20035;-69
2023/11/27 07:55:04;;;;;;;21.23;13.05;;;;;;;-146.27;89.83;33529.47;5089914;28;20028;-68
2023/11/27 07:57:30;;;;;;;20.40;13.43;;;;;;;-146.27;89.78;33598.94;5090937;28;20032;-68
2023/11/27 07:59:56;;;;;;;21.38;13.10;;;;;;;-146.27;89.70;33577.09;5091550;28;20076;-69
2023/11/27 08:02:21;;;;;;;22.50;13.00;;;;;;;-146.27;89.71;33632.66;5091359;28;20028;-70
2023/11/27 08:04:47;;;;;;;19.35;12.82;;;;;;;-146.27;90.00;33622.75;5092774;28;20422;-67
2023/11/27 08:07:12;;;;;;;18.70;12.52;;;;;;;-146.27;89.98;33644.56;5095152;27;20034;-69
2023/11/27 08:09:38;;;;;;;19.40;12.57;;;;;;;-146.27;89.88;33622.75;5095259;28;20036;-70
2023/11/27 08:12:04;;;;;;;18.17;12.93;;;;;;;-146.27;90.00;33640.59;5088572;28;20573;-69
2023/11/27 08:14:30;;;;;;;17.95;12.27;;;;;;;-146.27;89.95;33622.75;5101282;28;20081;-68
2023/11/27 08:16:55;;;;;;;17.58;12.85;;;;;;;-146.27;89.91;33646.53;5075738;28;20024;-70
2023/11/27 08:19:20;;;;;;;18.75;12.35;;;;;;;-146.27;90.18;33658.44;5103562;28;20590;-70
2023/11/27 08:21:46;;;;;;;18.40;12.75;;;;;;;-146.27;90.18;33602.91;5099306;28;20097;-70
2023/11/27 08:24:14;;;;;;;21.08;14.80;;;;;;;-146.27;90.13;33638.59;5100614;28;20103;-70
2023/11/27 08:26:49;;;;;;;19.55;12.82;;;;;;;-146.27;90.47;33604.88;5098256;28;20069;-68
2023/11/27 08:29:15;;;;;;;19.83;13.10;;;;;;;-146.27;90.07;33652.50;5077311;28;20031;-70
2023/11/27 08:31:42;;;;;;;19.52;13.30;;;;;;;-146.27;90.18;33648.53;5100351;28;20481;-69
2023/11/27 08:34:07;;;;;;;21.25;12.48;;;;;;;-146.27;90.17;33618.78;5107146;28;20012;-68
2023/11/27 08:36:33;;;;;;;18.77;12.88;;;;;;;-146.27;89.97;33626.72;5101418;28;20134;-69
2023/11/27 08:38:58;;;;;;;19.95;14.02;;;;;;;-146.27;89.88;33620.75;5100260;28;20380;-69
2023/11/27 08:41:24;;;;;;;18.95;13.13;;;;;;;-146.27;90.23;33608.84;5106054;28;20043;-69
2023/11/27 08:43:50;;;;;;;18.23;12.93;;;;;;;-146.27;90.18;33606.88;5107716;27;20442;-68
2023/11/27 08:46:16;;;;;;;20.50;13.20;;;;;;;-146.27;90.16;33569.16;5100151;28;20375;-68
2023/11/27 08:48:41;;;;;;;22.33;13.45;;;;;;;-146.27;90.29;33592.97;5098175;28;20535;-70
2023/11/27 08:51:08;;;;;;;19.42;14.05;;;;;;;-146.27;90.34;33604.88;5095870;28;20112;-69
2023/11/27 08:53:33;;;;;;;23.20;14.43;;;;;;;-146.27;90.20;33592.97;5094380;28;20120;-69
2023/11/27 08:56:00;;;;;;;18.58;14.15;;;;;;;-146.27;90.37;33648.53;5095921;28;20146;-70
2023/11/27 08:58:25;;;;;;;22.33;14.52;;;;;;;-146.27;90.43;33606.88;5104272;28;20027;-70
2023/11/27 09:00:51;;;;;;;19.60;13.43;;;;;;;-146.27;90.23;33589.00;5097999;28;20030;-69
2023/11/27 09:03:18;;;;;;;22.23;13.43;;;;;;;-146.27;90.29;33592.97;5095250;28;20425;-68
2023/11/27 09:05:44;;;;;;;21.20;14.48;;;;;;;-146.27;90.36;33600.91;5099486;28;20012;-68
2023/11/27 09:08:10;;;;;;;23.45;14.68;;;;;;;-146.27;90.39;33521.53;5109597;28;20110;-69
2023/11/27 09:10:36;;;;;;;23.83;14.50;;;;;;;-146.27;90.30;33604.88;5102280;28;20135;-69
2023/11/27 09:13:04;;;;;;;20.80;13.70;;;;;;;-146.27;90.25;33553.28;5104952;28;20031;-71
2023/11/27 09:15:29;;;;;;;20.80;13.90;;;;;;;-146.27;90.29;33545.34;5101475;28;20054;-68
2023/11/27 09:17:55;;;;;;;22.27;14.02;;;;;;;-146.27;90.34;33541.38;5099930;28;20028;-67
2023/11/27 09:20:21;;;;;;;23.75;14.20;;;;;;;-146.27;90.42;33521.53;5094686;28;20036;-71
2023/11/27 09:22:46;;;;;;;23.27;14.40;;;;;;;-146.27;90.44;33549.31;5091403;28;20546;-68
2023/11/27 09:25:12;;;;;;;22.25;14.35;;;;;;;-146.27;90.46;33569.16;5090094;28;20110;-69
2023/11/27 09:27:39;;;;;;;21.40;13.93;;;;;;;-146.27;90.26;33561.22;5102720;28;20108;-69
2023/11/27 09:30:07;;;;;;;22.60;14.73;;;;;;;-146.27;90.29;33529.47;5102348;28;20028;-70
2023/11/27 09:32:32;;;;;;;26.10;14.38;;;;;;;-146.27;90.33;33596.94;5103940;28;20467;-68
2023/11/27 09:34:58;;;;;;;21.67;14.23;;;;;;;-146.27;90.29;33513.59;5102851;28;20031;-69
2023/11/27 09:37:24;;;;;;;22.58;14.35;;;;;;;-146.27;90.35;33608.84;5106275;28;20047;-69
2023/11/27 09:39:50;;;;;;;21.83;13.95;;;;;;;-146.27;90.34;33533.44;5098332;28;20020;-68
2023/11/27 09:42:16;;;;;;;22.50;14.52;;;;;;;-146.27;90.20;33529.47;5092749;28;20028;-69
2023/11/27 09:44:42;;;;;;;21.88;13.35;;;;;;;-146.27;90.31;33511.63;5091927;28;20135;-69
2023/11/27 09:47:09;;;;;;;22.58;15.13;;;;;;;-146.27;90.43;33537.41;5093100;28;20034;-70
2023/11/27 09:49:41;;;;;;;22.13;14.25;;;;;;;-146.27;90.21;33541.38;5092231;28;20032;-69
2023/11/27 09:52:13;;;;;;;21.17;14.18;;;;;;;-146.27;90.66;33539.41;5097470;28;20030;-69
2023/11/27 09:54:41;;;;;;;22.92;14.40;;;;;;;-146.27;90.62;33497.72;5104747;28;20123;-67
2023/11/27 09:57:07;;;;;;;22.75;15.32;;;;;;;-146.27;90.37;33517.56;5094713;28;20564;-70
2023/11/27 09:59:38;;;;;;;22.60;15.23;;;;;;;-146.27;90.75;33541.38;5105915;28;20089;-69
2023/11/27 10:02:07;;;;;;;25.48;15.85;;;;;;;-146.27;90.63;33537.41;5097100;28;20379;-70
2023/11/27 10:04:35;;;;;;;22.30;15.02;;;;;;;-146.27;90.62;33517.56;5096926;28;20451;-69
2023/11/27 10:07:00;;;;;;;24.15;15.70;;;;;;;-146.27;90.34;33521.53;5107847;28;20410;-69
2023/11/27 10:09:26;;;;;;;23.73;15.43;;;;;;;-146.27;90.36;33517.56;5093913;28;20027;-69
2023/11/27 10:12:00;;;;;;;23.33;14.93;;;;;;;-146.27;90.45;33489.78;5098740;28;20073;-69
2023/11/27 10:14:27;;;;;;;23.80;15.32;;;;;;;-146.27;90.47;33513.59;5096484;28;20352;-69
2023/11/27 10:16:53;;;;;;;21.90;15.15;;;;;;;-146.27;90.53;33473.91;5090290;28;20115;-68
2023/11/27 10:19:23;;;;;;;24.05;15.55;;;;;;;-146.27;90.46;33458.03;5091561;27;20423;-68
2023/11/27 10:21:49;;;;;;;19.52;13.38;;;;;;;-146.27;90.38;33481.84;5102096;28;20043;-68
2023/11/27 10:24:16;;;;;;;23.67;14.32;;;;;;;-146.27;90.53;33483.84;5093934;28;20395;-69
2023/11/27 10:26:43;;;;;;;22.00;13.65;;;;;;;-146.27;90.63;33485.81;5105056;28;20417;-68
2023/11/27 10:29:10;;;;;;;21.70;13.40;;;;;;;-146.27;90.52;33432.25;5098972;28;20035;-68
2023/11/27 10:31:37;;;;;;;18.80;13.65;;;;;;;-146.27;90.53;33487.81;5098805;28;20039;-68
2023/11/27 10:34:05;;;;;;;19.38;14.13;;;;;;;-146.27;90.52;33489.78;5098471;28;20111;-68
2023/11/27 10:36:31;;;;;;;18.67;12.88;;;;;;;-146.27;90.53;33501.69;5094245;28;20668;-69
2023/11/27 10:39:15;;;;;;;19.67;13.45;;;;;;;-146.27;90.31;33458.03;5096164;28;20046;-69
2023/11/27 10:41:44;;;;;;;18.08;12.45;;;;;;;-146.27;90.59;33489.78;5099133;28;20027;-69
2023/11/27 10:44:12;;;;;;;18.10;13.23;;;;;;;-146.27;90.52;33505.66;5092293;28;20475;-69
2023/11/27 10:46:40;;;;;;;18.50;12.77;;;;;;;-146.27;90.46;33489.78;5095954;28;20069;-69
2023/11/27 10:49:07;;;;;;;18.67;12.43;;;;;;;-146.27;90.47;33525.50;5092161;28;20455;-69
2023/11/27 10:51:33;;;;;;;19.05;12.65;;;;;;;-146.27;90.39;33485.81;5090627;28;20484;-69
2023/11/27 10:54:03;;;;;;;18.15;12.68;;;;;;;-146.27;90.51;33499.72;5106603;28;20030;-69
2023/11/27 10:56:33;;;;;;;17.05;12.07;;;;;;;-146.27;90.78;33535.44;5095045;28;20035;-69
2023/11/27 10:59:05;;;;;;;20.35;13.15;;;;;;;-146.27;90.75;33545.34;5099003;28;20039;-70